createdAt,value
2023-05-19T00:00:00.749Z,75
2023-05-19T00:15:00.789Z,75
2023-05-19T00:30:00.736Z,75
2023-05-19T00:45:00.756Z,75
2023-05-19T01:00:00.756Z,76
2023-05-19T01:15:00.816Z,77
2023-05-19T01:30:00.753Z,77
2023-05-19T01:45:00.748Z,77
2023-05-19T02:00:00.802Z,77
2023-05-19T02:15:00.826Z,77
2023-05-19T02:30:00.716Z,77
2023-05-19T02:45:00.743Z,77
2023-05-19T03:00:00.740Z,77
2023-05-19T03:15:01.055Z,77
2023-05-19T03:30:00.805Z,77
2023-05-19T03:45:00.714Z,77
2023-05-19T04:00:00.800Z,78
2023-05-19T04:15:00.762Z,78
2023-05-19T04:30:00.751Z,78
2023-05-19T04:45:00.707Z,78
2023-05-19T05:00:00.721Z,78
2023-05-19T05:15:00.870Z,78
2023-05-19T05:30:00.742Z,78
2023-05-19T05:45:00.692Z,78
2023-05-19T06:00:00.740Z,78
2023-05-19T06:15:00.776Z,78
2023-05-19T06:30:00.772Z,78
2023-05-19T06:45:00.720Z,77
2023-05-19T07:00:00.709Z,77
2023-05-19T07:15:00.794Z,77
2023-05-19T07:30:00.723Z,77
2023-05-19T07:45:00.766Z,76
2023-05-19T08:00:00.765Z,76
2023-05-19T08:15:02.172Z,75
2023-05-19T08:30:00.792Z,73
2023-05-19T08:45:00.762Z,73
2023-05-19T09:00:00.725Z,73
2023-05-19T09:15:00.742Z,73
2023-05-19T09:30:00.848Z,72
2023-05-19T09:45:00.786Z,71
2023-05-19T10:00:00.753Z,71
2023-05-19T10:15:00.761Z,69
2023-05-19T10:30:00.774Z,68
2023-05-19T10:45:00.767Z,68
2023-05-19T11:00:00.814Z,68
2023-05-19T11:15:00.873Z,66
2023-05-19T11:30:00.766Z,67
2023-05-19T11:45:00.743Z,66
2023-05-19T12:00:00.771Z,66
2023-05-19T12:15:00.767Z,66
2023-05-19T12:30:00.705Z,66
2023-05-19T12:45:03.201Z,64
2023-05-19T13:00:00.835Z,65
2023-05-19T13:15:00.745Z,64
2023-05-19T13:30:00.878Z,64
2023-05-19T13:45:00.695Z,63
2023-05-19T14:00:04.299Z,64
2023-05-19T14:15:00.800Z,63
2023-05-19T14:30:00.782Z,62
2023-05-19T14:45:00.757Z,61
2023-05-19T15:00:00.728Z,60
2023-05-19T15:15:00.760Z,61
2023-05-19T15:30:00.866Z,61
2023-05-19T15:45:00.720Z,61
2023-05-19T16:00:00.802Z,62
2023-05-19T16:15:00.695Z,63
2023-05-19T16:30:00.743Z,63
2023-05-19T16:45:00.692Z,63
2023-05-19T17:00:00.698Z,64
2023-05-19T17:15:00.796Z,66
2023-05-19T17:30:00.716Z,67
2023-05-19T17:45:00.781Z,67
2023-05-19T18:00:00.795Z,68
2023-05-19T18:15:00.714Z,68
2023-05-19T18:30:00.871Z,69
2023-05-19T18:45:00.731Z,70
2023-05-19T19:00:00.754Z,70
2023-05-19T19:15:00.708Z,71
2023-05-19T19:30:00.773Z,71
2023-05-19T19:45:00.787Z,72
2023-05-19T20:00:00.903Z,73
2023-05-19T20:15:00.705Z,73
2023-05-19T20:30:00.865Z,73
2023-05-19T20:45:00.737Z,74
2023-05-19T21:00:00.778Z,75
2023-05-19T21:15:00.763Z,75
2023-05-19T21:30:00.739Z,75
2023-05-19T21:45:00.749Z,76
2023-05-19T22:00:02.380Z,75
2023-05-19T22:15:00.896Z,76
2023-05-19T22:30:00.811Z,76
2023-05-19T22:45:00.771Z,77
2023-05-19T23:00:00.734Z,77
2023-05-19T23:15:00.816Z,77
2023-05-19T23:30:00.822Z,78
2023-05-19T23:45:00.742Z,78
